sensor_id;sensor_type;location;lat;lon;timestamp;temperature;humidity
8633;DHT22;4354;49.832;10.746;2023-11-21T00:01:06;7.50;99.90
8633;DHT22;4354;49.832;10.746;2023-11-21T00:03:35;7.50;99.90
8633;DHT22;4354;49.832;10.746;2023-11-21T00:06:03;7.60;99.90
8633;DHT22;4354;49.832;10.746;2023-11-21T00:08:30;7.50;99.90
8633;DHT22;4354;49.832;10.746;2023-11-21T00:10:57;7.50;99.90
8633;DHT22;4354;49.832;10.746;2023-11-21T00:13:23;7.50;99.90
8633;DHT22;4354;49.832;10.746;2023-11-21T00:15:51;7.60;99.90
8633;DHT22;4354;49.832;10.746;2023-11-21T00:18:18;7.50;99.90
8633;DHT22;4354;49.832;10.746;2023-11-21T00:20:45;7.60;99.90
8633;DHT22;4354;49.832;10.746;2023-11-21T00:23:12;7.60;99.90
8633;DHT22;4354;49.832;10.746;2023-11-21T00:25:38;7.60;99.90
8633;DHT22;4354;49.832;10.746;2023-11-21T00:28:06;7.60;99.90
8633;DHT22;4354;49.832;10.746;2023-11-21T00:30:33;7.60;99.90
8633;DHT22;4354;49.832;10.746;2023-11-21T00:33:00;7.70;99.90
8633;DHT22;4354;49.832;10.746;2023-11-21T00:35:27;7.70;99.90
8633;DHT22;4354;49.832;10.746;2023-11-21T00:37:54;7.70;99.90
8633;DHT22;4354;49.832;10.746;2023-11-21T00:40:20;7.70;99.90
8633;DHT22;4354;49.832;10.746;2023-11-21T00:42:48;7.70;99.90
8633;DHT22;4354;49.832;10.746;2023-11-21T00:45:14;7.70;99.90
8633;DHT22;4354;49.832;10.746;2023-11-21T00:47:41;7.70;99.90
8633;DHT22;4354;49.832;10.746;2023-11-21T00:50:09;7.70;99.90
8633;DHT22;4354;49.832;10.746;2023-11-21T00:52:36;7.70;99.90
8633;DHT22;4354;49.832;10.746;2023-11-21T00:55:04;7.70;99.90
8633;DHT22;4354;49.832;10.746;2023-11-21T00:57:34;7.70;99.90
8633;DHT22;4354;49.832;10.746;2023-11-21T01:00:01;7.70;99.90
8633;DHT22;4354;49.832;10.746;2023-11-21T01:02:28;7.70;99.90
8633;DHT22;4354;49.832;10.746;2023-11-21T01:04:55;7.70;99.90
8633;DHT22;4354;49.832;10.746;2023-11-21T01:07:22;7.70;99.90
8633;DHT22;4354;49.832;10.746;2023-11-21T01:09:49;7.80;99.90
8633;DHT22;4354;49.832;10.746;2023-11-21T01:12:16;7.70;99.90
8633;DHT22;4354;49.832;10.746;2023-11-21T01:14:44;7.70;99.90
8633;DHT22;4354;49.832;10.746;2023-11-21T01:17:12;7.80;99.90
8633;DHT22;4354;49.832;10.746;2023-11-21T01:19:38;7.80;99.90
8633;DHT22;4354;49.832;10.746;2023-11-21T01:22:05;7.80;99.90
8633;DHT22;4354;49.832;10.746;2023-11-21T01:24:32;7.80;99.90
8633;DHT22;4354;49.832;10.746;2023-11-21T01:26:59;7.80;99.90
8633;DHT22;4354;49.832;10.746;2023-11-21T01:29:26;7.80;99.90
8633;DHT22;4354;49.832;10.746;2023-11-21T01:31:52;7.80;99.90
8633;DHT22;4354;49.832;10.746;2023-11-21T01:34:19;7.80;99.90
8633;DHT22;4354;49.832;10.746;2023-11-21T01:36:47;7.80;99.70
8633;DHT22;4354;49.832;10.746;2023-11-21T01:39:14;7.80;99.60
8633;DHT22;4354;49.832;10.746;2023-11-21T01:41:42;7.80;99.90
8633;DHT22;4354;49.832;10.746;2023-11-21T01:44:11;7.80;97.60
8633;DHT22;4354;49.832;10.746;2023-11-21T01:46:38;7.80;96.70
8633;DHT22;4354;49.832;10.746;2023-11-21T01:49:05;7.80;99.60
8633;DHT22;4354;49.832;10.746;2023-11-21T01:51:33;7.80;99.70
8633;DHT22;4354;49.832;10.746;2023-11-21T01:54:00;7.80;99.90
8633;DHT22;4354;49.832;10.746;2023-11-21T01:56:27;7.80;99.90
8633;DHT22;4354;49.832;10.746;2023-11-21T01:58:54;7.80;99.90
8633;DHT22;4354;49.832;10.746;2023-11-21T02:01:21;7.70;99.90
8633;DHT22;4354;49.832;10.746;2023-11-21T02:03:48;7.70;99.90
8633;DHT22;4354;49.832;10.746;2023-11-21T02:06:15;7.70;99.90
8633;DHT22;4354;49.832;10.746;2023-11-21T02:08:41;7.80;99.90
8633;DHT22;4354;49.832;10.746;2023-11-21T02:11:10;7.70;99.90
8633;DHT22;4354;49.832;10.746;2023-11-21T02:13:39;7.70;99.90
8633;DHT22;4354;49.832;10.746;2023-11-21T02:16:13;7.70;99.90
8633;DHT22;4354;49.832;10.746;2023-11-21T02:18:41;7.70;99.90
8633;DHT22;4354;49.832;10.746;2023-11-21T02:21:08;7.70;99.90
8633;DHT22;4354;49.832;10.746;2023-11-21T02:23:36;7.70;99.90
8633;DHT22;4354;49.832;10.746;2023-11-21T02:26:05;7.70;99.90
8633;DHT22;4354;49.832;10.746;2023-11-21T02:28:32;7.70;99.90
8633;DHT22;4354;49.832;10.746;2023-11-21T02:31:00;7.70;99.90
8633;DHT22;4354;49.832;10.746;2023-11-21T02:33:27;7.70;99.90
8633;DHT22;4354;49.832;10.746;2023-11-21T02:35:53;7.70;99.90
8633;DHT22;4354;49.832;10.746;2023-11-21T02:38:21;7.70;99.90
8633;DHT22;4354;49.832;10.746;2023-11-21T02:40:48;7.70;99.90
8633;DHT22;4354;49.832;10.746;2023-11-21T02:43:16;7.70;99.90
8633;DHT22;4354;49.832;10.746;2023-11-21T02:45:43;7.70;99.90
8633;DHT22;4354;49.832;10.746;2023-11-21T02:48:09;7.70;99.90
8633;DHT22;4354;49.832;10.746;2023-11-21T02:50:36;7.70;99.90
8633;DHT22;4354;49.832;10.746;2023-11-21T02:53:04;7.70;99.90
8633;DHT22;4354;49.832;10.746;2023-11-21T02:55:32;7.70;99.90
8633;DHT22;4354;49.832;10.746;2023-11-21T02:58:02;7.80;99.90
8633;DHT22;4354;49.832;10.746;2023-11-21T03:00:33;7.80;99.90
8633;DHT22;4354;49.832;10.746;2023-11-21T03:02:59;7.80;99.90
8633;DHT22;4354;49.832;10.746;2023-11-21T03:05:27;7.80;99.90
8633;DHT22;4354;49.832;10.746;2023-11-21T03:07:55;7.80;99.90
8633;DHT22;4354;49.832;10.746;2023-11-21T03:10:22;7.80;99.90
8633;DHT22;4354;49.832;10.746;2023-11-21T03:12:49;7.80;99.90
8633;DHT22;4354;49.832;10.746;2023-11-21T03:15:16;7.80;99.90
8633;DHT22;4354;49.832;10.746;2023-11-21T03:17:43;7.80;99.90
8633;DHT22;4354;49.832;10.746;2023-11-21T03:20:10;7.70;99.90
8633;DHT22;4354;49.832;10.746;2023-11-21T03:22:38;7.70;99.90
8633;DHT22;4354;49.832;10.746;2023-11-21T03:25:06;7.70;99.90
8633;DHT22;4354;49.832;10.746;2023-11-21T03:27:33;7.70;99.90
8633;DHT22;4354;49.832;10.746;2023-11-21T03:30:00;7.70;99.90
8633;DHT22;4354;49.832;10.746;2023-11-21T03:32:26;7.70;99.90
8633;DHT22;4354;49.832;10.746;2023-11-21T03:34:55;7.70;99.90
8633;DHT22;4354;49.832;10.746;2023-11-21T03:37:23;7.70;99.90
8633;DHT22;4354;49.832;10.746;2023-11-21T03:39:50;7.70;99.90
8633;DHT22;4354;49.832;10.746;2023-11-21T03:42:17;7.70;99.90
8633;DHT22;4354;49.832;10.746;2023-11-21T03:44:44;7.70;99.90
8633;DHT22;4354;49.832;10.746;2023-11-21T03:47:11;7.70;99.90
8633;DHT22;4354;49.832;10.746;2023-11-21T03:49:38;7.70;99.90
8633;DHT22;4354;49.832;10.746;2023-11-21T03:52:05;7.70;99.90
8633;DHT22;4354;49.832;10.746;2023-11-21T03:54:32;7.70;99.90
8633;DHT22;4354;49.832;10.746;2023-11-21T03:56:58;7.70;99.90
8633;DHT22;4354;49.832;10.746;2023-11-21T03:59:25;7.70;99.90
8633;DHT22;4354;49.832;10.746;2023-11-21T04:01:52;7.70;99.90
8633;DHT22;4354;49.832;10.746;2023-11-21T04:04:18;7.70;99.90
8633;DHT22;4354;49.832;10.746;2023-11-21T04:06:46;7.70;99.90
8633;DHT22;4354;49.832;10.746;2023-11-21T04:09:13;7.70;99.90
8633;DHT22;4354;49.832;10.746;2023-11-21T04:11:40;7.80;99.90
8633;DHT22;4354;49.832;10.746;2023-11-21T04:14:06;7.70;99.90
8633;DHT22;4354;49.832;10.746;2023-11-21T04:16:33;7.70;99.90
8633;DHT22;4354;49.832;10.746;2023-11-21T04:19:00;7.70;99.90
8633;DHT22;4354;49.832;10.746;2023-11-21T04:21:27;7.70;99.90
8633;DHT22;4354;49.832;10.746;2023-11-21T04:23:54;7.70;99.90
8633;DHT22;4354;49.832;10.746;2023-11-21T04:26:21;7.70;99.90
8633;DHT22;4354;49.832;10.746;2023-11-21T04:28:48;7.70;99.90
8633;DHT22;4354;49.832;10.746;2023-11-21T04:31:15;7.70;99.90
8633;DHT22;4354;49.832;10.746;2023-11-21T04:33:41;7.70;99.90
8633;DHT22;4354;49.832;10.746;2023-11-21T04:36:08;7.70;99.90
8633;DHT22;4354;49.832;10.746;2023-11-21T04:38:35;7.70;99.90
8633;DHT22;4354;49.832;10.746;2023-11-21T04:41:02;7.70;99.90
8633;DHT22;4354;49.832;10.746;2023-11-21T04:43:29;7.70;99.90
8633;DHT22;4354;49.832;10.746;2023-11-21T04:45:56;7.70;99.90
8633;DHT22;4354;49.832;10.746;2023-11-21T04:48:23;7.70;99.90
8633;DHT22;4354;49.832;10.746;2023-11-21T04:50:50;7.70;99.90
8633;DHT22;4354;49.832;10.746;2023-11-21T04:53:17;7.70;99.90
8633;DHT22;4354;49.832;10.746;2023-11-21T04:55:44;7.60;99.90
8633;DHT22;4354;49.832;10.746;2023-11-21T04:58:11;7.60;99.90
8633;DHT22;4354;49.832;10.746;2023-11-21T05:00:38;7.60;99.90
8633;DHT22;4354;49.832;10.746;2023-11-21T05:03:06;7.60;99.90
8633;DHT22;4354;49.832;10.746;2023-11-21T05:05:34;7.60;99.90
8633;DHT22;4354;49.832;10.746;2023-11-21T05:08:01;7.70;99.90
8633;DHT22;4354;49.832;10.746;2023-11-21T05:10:28;7.70;99.90
8633;DHT22;4354;49.832;10.746;2023-11-21T05:12:55;7.70;99.90
8633;DHT22;4354;49.832;10.746;2023-11-21T05:15:23;7.70;99.90
8633;DHT22;4354;49.832;10.746;2023-11-21T05:17:50;7.70;99.90
8633;DHT22;4354;49.832;10.746;2023-11-21T05:20:19;7.70;99.90
8633;DHT22;4354;49.832;10.746;2023-11-21T05:22:48;7.70;99.90
8633;DHT22;4354;49.832;10.746;2023-11-21T05:25:17;7.70;99.90
8633;DHT22;4354;49.832;10.746;2023-11-21T05:27:47;7.70;99.90
8633;DHT22;4354;49.832;10.746;2023-11-21T05:30:14;7.70;99.90
8633;DHT22;4354;49.832;10.746;2023-11-21T05:32:41;7.60;99.90
8633;DHT22;4354;49.832;10.746;2023-11-21T05:35:11;7.60;99.90
8633;DHT22;4354;49.832;10.746;2023-11-21T05:37:47;7.70;99.90
8633;DHT22;4354;49.832;10.746;2023-11-21T05:40:14;7.70;99.90
8633;DHT22;4354;49.832;10.746;2023-11-21T05:42:41;7.70;99.90
8633;DHT22;4354;49.832;10.746;2023-11-21T05:45:08;7.70;99.90
8633;DHT22;4354;49.832;10.746;2023-11-21T05:47:38;7.60;99.90
8633;DHT22;4354;49.832;10.746;2023-11-21T05:50:08;7.60;99.90
8633;DHT22;4354;49.832;10.746;2023-11-21T05:52:39;7.60;99.90
8633;DHT22;4354;49.832;10.746;2023-11-21T05:55:07;7.60;99.90
8633;DHT22;4354;49.832;10.746;2023-11-21T05:57:39;7.60;99.90
8633;DHT22;4354;49.832;10.746;2023-11-21T06:00:08;7.60;99.90
8633;DHT22;4354;49.832;10.746;2023-11-21T06:02:39;7.60;99.90
8633;DHT22;4354;49.832;10.746;2023-11-21T06:05:07;7.60;99.90
8633;DHT22;4354;49.832;10.746;2023-11-21T06:07:34;7.60;99.90
8633;DHT22;4354;49.832;10.746;2023-11-21T06:10:03;7.70;99.90
8633;DHT22;4354;49.832;10.746;2023-11-21T06:12:33;7.70;99.90
8633;DHT22;4354;49.832;10.746;2023-11-21T06:15:03;7.70;99.90
8633;DHT22;4354;49.832;10.746;2023-11-21T06:17:31;7.70;99.90
8633;DHT22;4354;49.832;10.746;2023-11-21T06:19:59;7.70;99.90
8633;DHT22;4354;49.832;10.746;2023-11-21T06:22:26;7.70;99.90
8633;DHT22;4354;49.832;10.746;2023-11-21T06:24:52;7.70;99.90
8633;DHT22;4354;49.832;10.746;2023-11-21T06:27:19;7.80;99.90
8633;DHT22;4354;49.832;10.746;2023-11-21T06:29:46;7.70;99.90
8633;DHT22;4354;49.832;10.746;2023-11-21T06:32:13;7.70;99.90
8633;DHT22;4354;49.832;10.746;2023-11-21T06:34:41;7.70;99.90
8633;DHT22;4354;49.832;10.746;2023-11-21T06:37:08;7.70;99.90
8633;DHT22;4354;49.832;10.746;2023-11-21T06:39:34;7.70;99.90
8633;DHT22;4354;49.832;10.746;2023-11-21T06:42:02;7.80;99.90
8633;DHT22;4354;49.832;10.746;2023-11-21T06:44:29;7.80;99.90
8633;DHT22;4354;49.832;10.746;2023-11-21T06:46:55;7.80;99.90
8633;DHT22;4354;49.832;10.746;2023-11-21T06:49:22;7.80;99.90
8633;DHT22;4354;49.832;10.746;2023-11-21T06:51:49;7.80;99.90
8633;DHT22;4354;49.832;10.746;2023-11-21T06:54:16;7.80;99.90
8633;DHT22;4354;49.832;10.746;2023-11-21T06:56:43;7.80;99.90
8633;DHT22;4354;49.832;10.746;2023-11-21T06:59:10;7.80;99.90
8633;DHT22;4354;49.832;10.746;2023-11-21T07:01:37;8.20;99.90
8633;DHT22;4354;49.832;10.746;2023-11-21T07:04:05;7.80;99.90
8633;DHT22;4354;49.832;10.746;2023-11-21T07:06:33;7.80;99.90
8633;DHT22;4354;49.832;10.746;2023-11-21T07:09:00;7.80;99.90
8633;DHT22;4354;49.832;10.746;2023-11-21T07:11:27;7.80;99.90
8633;DHT22;4354;49.832;10.746;2023-11-21T07:13:54;7.80;99.90
8633;DHT22;4354;49.832;10.746;2023-11-21T07:16:21;7.80;99.90
8633;DHT22;4354;49.832;10.746;2023-11-21T07:18:49;7.80;99.90
8633;DHT22;4354;49.832;10.746;2023-11-21T07:21:16;7.90;99.90
8633;DHT22;4354;49.832;10.746;2023-11-21T07:23:43;7.90;99.90
8633;DHT22;4354;49.832;10.746;2023-11-21T07:26:10;7.90;99.90
8633;DHT22;4354;49.832;10.746;2023-11-21T07:28:37;8.00;99.90
8633;DHT22;4354;49.832;10.746;2023-11-21T07:31:04;8.00;99.90
8633;DHT22;4354;49.832;10.746;2023-11-21T07:33:31;8.00;99.90
8633;DHT22;4354;49.832;10.746;2023-11-21T07:35:58;8.00;99.90
8633;DHT22;4354;49.832;10.746;2023-11-21T07:38:24;8.00;99.90
8633;DHT22;4354;49.832;10.746;2023-11-21T07:40:51;8.10;99.90
8633;DHT22;4354;49.832;10.746;2023-11-21T07:43:18;8.10;99.90
8633;DHT22;4354;49.832;10.746;2023-11-21T07:45:46;8.20;99.90
8633;DHT22;4354;49.832;10.746;2023-11-21T07:48:13;8.30;99.90
8633;DHT22;4354;49.832;10.746;2023-11-21T07:50:39;8.40;99.90
8633;DHT22;4354;49.832;10.746;2023-11-21T07:53:06;8.50;99.90
8633;DHT22;4354;49.832;10.746;2023-11-21T07:55:33;8.50;99.90
8633;DHT22;4354;49.832;10.746;2023-11-21T07:58:00;8.50;99.90
8633;DHT22;4354;49.832;10.746;2023-11-21T08:00:27;8.50;99.90
8633;DHT22;4354;49.832;10.746;2023-11-21T08:02:57;8.50;99.90
8633;DHT22;4354;49.832;10.746;2023-11-21T08:05:24;8.60;99.90
8633;DHT22;4354;49.832;10.746;2023-11-21T08:08:02;8.60;99.90
8633;DHT22;4354;49.832;10.746;2023-11-21T08:10:29;8.60;99.90
8633;DHT22;4354;49.832;10.746;2023-11-21T08:12:57;8.70;99.90
8633;DHT22;4354;49.832;10.746;2023-11-21T08:15:24;8.80;99.90
8633;DHT22;4354;49.832;10.746;2023-11-21T08:17:50;8.80;99.90
8633;DHT22;4354;49.832;10.746;2023-11-21T08:20:17;8.90;99.90
8633;DHT22;4354;49.832;10.746;2023-11-21T08:22:45;9.00;99.90
8633;DHT22;4354;49.832;10.746;2023-11-21T08:25:14;9.10;99.90
8633;DHT22;4354;49.832;10.746;2023-11-21T08:27:41;9.10;99.90
8633;DHT22;4354;49.832;10.746;2023-11-21T08:30:08;9.20;99.90
8633;DHT22;4354;49.832;10.746;2023-11-21T08:32:35;9.30;99.90
8633;DHT22;4354;49.832;10.746;2023-11-21T08:35:02;9.30;99.90
8633;DHT22;4354;49.832;10.746;2023-11-21T08:37:29;9.40;99.90
8633;DHT22;4354;49.832;10.746;2023-11-21T08:39:58;9.50;99.90
8633;DHT22;4354;49.832;10.746;2023-11-21T08:42:26;9.50;98.80
8633;DHT22;4354;49.832;10.746;2023-11-21T08:44:56;9.60;81.90
8633;DHT22;4354;49.832;10.746;2023-11-21T08:47:27;9.50;68.30
8633;DHT22;4354;49.832;10.746;2023-11-21T08:49:54;9.60;88.10
8633;DHT22;4354;49.832;10.746;2023-11-21T08:52:21;9.60;63.90
8633;DHT22;4354;49.832;10.746;2023-11-21T08:54:51;9.60;75.20
8633;DHT22;4354;49.832;10.746;2023-11-21T08:57:23;9.80;80.80
8633;DHT22;4354;49.832;10.746;2023-11-21T08:59:49;9.90;61.30
8633;DHT22;4354;49.832;10.746;2023-11-21T09:02:22;10.00;41.00
8633;DHT22;4354;49.832;10.746;2023-11-21T09:04:50;10.00;44.10
8633;DHT22;4354;49.832;10.746;2023-11-21T09:07:19;10.10;15.80
8633;DHT22;4354;49.832;10.746;2023-11-21T09:09:49;10.20;1.00
8633;DHT22;4354;49.832;10.746;2023-11-21T09:12:16;10.30;1.00
8633;DHT22;4354;49.832;10.746;2023-11-21T09:14:43;10.50;1.00
8633;DHT22;4354;49.832;10.746;2023-11-21T09:17:10;10.60;1.00
8633;DHT22;4354;49.832;10.746;2023-11-21T09:19:38;10.50;1.00
8633;DHT22;4354;49.832;10.746;2023-11-21T09:22:05;10.60;1.00
8633;DHT22;4354;49.832;10.746;2023-11-21T09:24:35;10.70;1.00
8633;DHT22;4354;49.832;10.746;2023-11-21T09:27:04;10.80;1.00
8633;DHT22;4354;49.832;10.746;2023-11-21T09:29:32;11.00;1.00
8633;DHT22;4354;49.832;10.746;2023-11-21T09:31:58;10.90;1.00
8633;DHT22;4354;49.832;10.746;2023-11-21T09:34:28;10.80;1.00
8633;DHT22;4354;49.832;10.746;2023-11-21T09:36:55;10.70;99.90
8633;DHT22;4354;49.832;10.746;2023-11-21T09:39:22;10.80;1.00
8633;DHT22;4354;49.832;10.746;2023-11-21T09:41:54;10.80;1.00
8633;DHT22;4354;49.832;10.746;2023-11-21T09:44:45;11.00;99.90
8633;DHT22;4354;49.832;10.746;2023-11-21T09:47:15;11.10;1.00
8633;DHT22;4354;49.832;10.746;2023-11-21T09:49:47;11.00;99.90
8633;DHT22;4354;49.832;10.746;2023-11-21T09:52:27;11.10;1.00
8633;DHT22;4354;49.832;10.746;2023-11-21T09:54:55;11.10;99.90
8633;DHT22;4354;49.832;10.746;2023-11-21T09:57:25;11.10;99.90
8633;DHT22;4354;49.832;10.746;2023-11-21T09:59:54;11.30;1.00
8633;DHT22;4354;49.832;10.746;2023-11-21T10:02:26;11.40;1.00
8633;DHT22;4354;49.832;10.746;2023-11-21T10:04:53;11.60;99.90
8633;DHT22;4354;49.832;10.746;2023-11-21T10:07:21;11.70;1.00
8633;DHT22;4354;49.832;10.746;2023-11-21T10:09:51;11.80;1.00
8633;DHT22;4354;49.832;10.746;2023-11-21T10:12:18;11.80;1.00
8633;DHT22;4354;49.832;10.746;2023-11-21T10:14:48;11.80;99.90
8633;DHT22;4354;49.832;10.746;2023-11-21T10:17:16;11.70;1.00
8633;DHT22;4354;49.832;10.746;2023-11-21T10:19:48;11.60;99.90
8633;DHT22;4354;49.832;10.746;2023-11-21T10:22:15;11.50;1.00
8633;DHT22;4354;49.832;10.746;2023-11-21T10:24:43;11.40;1.00
8633;DHT22;4354;49.832;10.746;2023-11-21T10:27:19;11.40;1.00
8633;DHT22;4354;49.832;10.746;2023-11-21T10:29:46;11.30;1.00
8633;DHT22;4354;49.832;10.746;2023-11-21T10:32:13;11.30;99.90
8633;DHT22;4354;49.832;10.746;2023-11-21T10:34:39;11.20;1.00
8633;DHT22;4354;49.832;10.746;2023-11-21T10:37:11;11.30;1.00
8633;DHT22;4354;49.832;10.746;2023-11-21T10:39:39;11.20;99.90
8633;DHT22;4354;49.832;10.746;2023-11-21T10:42:08;11.00;1.00
8633;DHT22;4354;49.832;10.746;2023-11-21T10:44:35;11.00;99.90
8633;DHT22;4354;49.832;10.746;2023-11-21T10:47:02;10.80;99.90
8633;DHT22;4354;49.832;10.746;2023-11-21T10:49:30;10.90;1.00
8633;DHT22;4354;49.832;10.746;2023-11-21T10:51:57;11.00;99.90
8633;DHT22;4354;49.832;10.746;2023-11-21T10:54:24;11.00;99.90
8633;DHT22;4354;49.832;10.746;2023-11-21T10:56:59;11.00;1.00
8633;DHT22;4354;49.832;10.746;2023-11-21T10:59:30;11.10;99.90
8633;DHT22;4354;49.832;10.746;2023-11-21T11:01:58;11.00;1.00
8633;DHT22;4354;49.832;10.746;2023-11-21T11:04:29;11.00;1.00
8633;DHT22;4354;49.832;10.746;2023-11-21T11:06:57;11.00;1.00
8633;DHT22;4354;49.832;10.746;2023-11-21T11:09:31;11.00;1.00
8633;DHT22;4354;49.832;10.746;2023-11-21T11:12:04;11.10;1.00
8633;DHT22;4354;49.832;10.746;2023-11-21T11:14:33;11.10;1.00
8633;DHT22;4354;49.832;10.746;2023-11-21T11:17:01;11.20;1.00
8633;DHT22;4354;49.832;10.746;2023-11-21T11:19:29;11.10;1.00
8633;DHT22;4354;49.832;10.746;2023-11-21T11:22:36;11.30;1.00
8633;DHT22;4354;49.832;10.746;2023-11-21T11:30:48;11.90;1.00
8633;DHT22;4354;49.832;10.746;2023-11-21T11:38:47;13.70;99.90
8633;DHT22;4354;49.832;10.746;2023-11-21T11:41:29;14.60;95.60
8633;DHT22;4354;49.832;10.746;2023-11-21T11:44:00;15.40;1.00
8633;DHT22;4354;49.832;10.746;2023-11-21T11:46:59;16.10;1.00
8633;DHT22;4354;49.832;10.746;2023-11-21T11:49:31;16.30;1.00
8633;DHT22;4354;49.832;10.746;2023-11-21T11:52:33;16.50;1.00
8633;DHT22;4354;49.832;10.746;2023-11-21T11:55:03;17.20;1.00
8633;DHT22;4354;49.832;10.746;2023-11-21T11:57:31;17.50;99.90
8633;DHT22;4354;49.832;10.746;2023-11-21T12:02:50;17.30;99.90
8633;DHT22;4354;49.832;10.746;2023-11-21T12:05:19;17.20;99.90
8633;DHT22;4354;49.832;10.746;2023-11-21T12:07:51;17.00;99.90
8633;DHT22;4354;49.832;10.746;2023-11-21T12:10:35;16.80;99.90
8633;DHT22;4354;49.832;10.746;2023-11-21T12:13:06;16.80;99.90
8633;DHT22;4354;49.832;10.746;2023-11-21T12:15:38;16.30;99.90
8633;DHT22;4354;49.832;10.746;2023-11-21T12:18:07;15.80;99.90
8633;DHT22;4354;49.832;10.746;2023-11-21T12:20:34;15.10;99.90
8633;DHT22;4354;49.832;10.746;2023-11-21T12:23:09;14.80;99.90
8633;DHT22;4354;49.832;10.746;2023-11-21T12:25:36;14.40;99.90
8633;DHT22;4354;49.832;10.746;2023-11-21T12:28:04;14.10;99.90
8633;DHT22;4354;49.832;10.746;2023-11-21T12:30:31;14.10;99.90
8633;DHT22;4354;49.832;10.746;2023-11-21T12:32:59;14.30;99.90
8633;DHT22;4354;49.832;10.746;2023-11-21T12:35:33;14.20;99.90
8633;DHT22;4354;49.832;10.746;2023-11-21T12:38:02;14.10;99.90
8633;DHT22;4354;49.832;10.746;2023-11-21T12:40:29;14.10;99.90
8633;DHT22;4354;49.832;10.746;2023-11-21T12:42:57;14.00;99.90
8633;DHT22;4354;49.832;10.746;2023-11-21T12:45:26;14.00;99.90
8633;DHT22;4354;49.832;10.746;2023-11-21T12:48:00;13.80;99.90
8633;DHT22;4354;49.832;10.746;2023-11-21T12:50:30;13.60;99.90
8633;DHT22;4354;49.832;10.746;2023-11-21T12:53:11;13.60;99.90
8633;DHT22;4354;49.832;10.746;2023-11-21T12:55:44;13.30;99.90
8633;DHT22;4354;49.832;10.746;2023-11-21T12:58:16;13.10;99.90
8633;DHT22;4354;49.832;10.746;2023-11-21T13:00:45;12.90;99.90
8633;DHT22;4354;49.832;10.746;2023-11-21T13:03:14;12.80;99.90
8633;DHT22;4354;49.832;10.746;2023-11-21T13:05:48;12.70;1.00
8633;DHT22;4354;49.832;10.746;2023-11-21T13:08:22;12.50;1.00
8633;DHT22;4354;49.832;10.746;2023-11-21T13:10:55;12.50;1.00
8633;DHT22;4354;49.832;10.746;2023-11-21T13:13:24;12.40;1.00
8633;DHT22;4354;49.832;10.746;2023-11-21T13:16:00;12.50;1.00
8633;DHT22;4354;49.832;10.746;2023-11-21T13:18:31;12.50;1.00
8633;DHT22;4354;49.832;10.746;2023-11-21T13:20:59;12.40;1.00
8633;DHT22;4354;49.832;10.746;2023-11-21T13:23:26;12.30;1.00
8633;DHT22;4354;49.832;10.746;2023-11-21T13:25:53;12.30;1.00
8633;DHT22;4354;49.832;10.746;2023-11-21T13:28:31;12.30;1.00
8633;DHT22;4354;49.832;10.746;2023-11-21T13:31:01;12.20;1.00
8633;DHT22;4354;49.832;10.746;2023-11-21T13:33:38;12.20;1.00
8633;DHT22;4354;49.832;10.746;2023-11-21T13:36:06;12.10;1.00
8633;DHT22;4354;49.832;10.746;2023-11-21T13:38:37;11.90;1.00
8633;DHT22;4354;49.832;10.746;2023-11-21T13:41:08;11.90;1.00
8633;DHT22;4354;49.832;10.746;2023-11-21T13:43:36;11.80;1.00
8633;DHT22;4354;49.832;10.746;2023-11-21T13:46:04;11.70;1.00
8633;DHT22;4354;49.832;10.746;2023-11-21T13:48:40;11.70;1.00
8633;DHT22;4354;49.832;10.746;2023-11-21T13:51:17;11.60;1.00
8633;DHT22;4354;49.832;10.746;2023-11-21T13:53:45;11.60;1.00
8633;DHT22;4354;49.832;10.746;2023-11-21T13:56:15;11.60;1.00
8633;DHT22;4354;49.832;10.746;2023-11-21T13:58:51;11.50;1.00
8633;DHT22;4354;49.832;10.746;2023-11-21T14:01:22;11.50;1.00
8633;DHT22;4354;49.832;10.746;2023-11-21T14:04:01;11.30;1.00
8633;DHT22;4354;49.832;10.746;2023-11-21T14:06:47;11.30;1.00
8633;DHT22;4354;49.832;10.746;2023-11-21T14:09:20;11.30;1.00
8633;DHT22;4354;49.832;10.746;2023-11-21T14:11:53;11.20;1.00
8633;DHT22;4354;49.832;10.746;2023-11-21T14:14:24;11.00;1.00
8633;DHT22;4354;49.832;10.746;2023-11-21T14:16:54;10.90;1.00
8633;DHT22;4354;49.832;10.746;2023-11-21T14:19:22;10.80;1.00
8633;DHT22;4354;49.832;10.746;2023-11-21T14:21:54;10.70;1.00
8633;DHT22;4354;49.832;10.746;2023-11-21T14:24:21;10.70;1.00
8633;DHT22;4354;49.832;10.746;2023-11-21T14:26:51;10.40;1.00
8633;DHT22;4354;49.832;10.746;2023-11-21T14:29:19;10.30;99.90
8633;DHT22;4354;49.832;10.746;2023-11-21T14:31:50;10.20;1.00
8633;DHT22;4354;49.832;10.746;2023-11-21T14:34:18;10.10;1.00
8633;DHT22;4354;49.832;10.746;2023-11-21T14:36:49;10.00;1.00
8633;DHT22;4354;49.832;10.746;2023-11-21T14:39:16;10.00;1.00
8633;DHT22;4354;49.832;10.746;2023-11-21T14:41:51;9.90;1.00
8633;DHT22;4354;49.832;10.746;2023-11-21T14:44:19;9.80;1.00
8633;DHT22;4354;49.832;10.746;2023-11-21T14:46:47;9.80;1.00
8633;DHT22;4354;49.832;10.746;2023-11-21T14:49:17;9.80;99.90
8633;DHT22;4354;49.832;10.746;2023-11-21T14:51:48;9.70;99.90
8633;DHT22;4354;49.832;10.746;2023-11-21T14:54:35;9.70;1.00
8633;DHT22;4354;49.832;10.746;2023-11-21T14:57:14;9.70;1.00
8633;DHT22;4354;49.832;10.746;2023-11-21T14:59:50;9.70;1.00
8633;DHT22;4354;49.832;10.746;2023-11-21T15:02:19;9.60;1.00
8633;DHT22;4354;49.832;10.746;2023-11-21T15:05:10;9.50;99.90
8633;DHT22;4354;49.832;10.746;2023-11-21T15:07:43;9.50;99.90
8633;DHT22;4354;49.832;10.746;2023-11-21T15:10:12;9.50;1.00
8633;DHT22;4354;49.832;10.746;2023-11-21T15:12:42;9.50;1.00
8633;DHT22;4354;49.832;10.746;2023-11-21T15:15:11;9.40;1.00
8633;DHT22;4354;49.832;10.746;2023-11-21T15:17:38;9.40;46.70
8633;DHT22;4354;49.832;10.746;2023-11-21T15:20:10;9.40;99.90
8633;DHT22;4354;49.832;10.746;2023-11-21T15:22:39;9.30;1.00
8633;DHT22;4354;49.832;10.746;2023-11-21T15:25:06;9.30;99.90
8633;DHT22;4354;49.832;10.746;2023-11-21T15:27:37;9.30;1.00
8633;DHT22;4354;49.832;10.746;2023-11-21T15:30:04;9.20;17.10
8633;DHT22;4354;49.832;10.746;2023-11-21T15:32:31;9.30;99.90
8633;DHT22;4354;49.832;10.746;2023-11-21T15:34:58;9.20;1.00
8633;DHT22;4354;49.832;10.746;2023-11-21T15:37:25;9.20;1.00
8633;DHT22;4354;49.832;10.746;2023-11-21T15:39:54;9.20;1.00
8633;DHT22;4354;49.832;10.746;2023-11-21T15:42:21;9.10;99.90
8633;DHT22;4354;49.832;10.746;2023-11-21T15:44:47;9.10;99.90
8633;DHT22;4354;49.832;10.746;2023-11-21T15:47:14;9.10;99.90
8633;DHT22;4354;49.832;10.746;2023-11-21T15:49:41;9.10;1.00
8633;DHT22;4354;49.832;10.746;2023-11-21T15:52:08;9.00;99.90
8633;DHT22;4354;49.832;10.746;2023-11-21T15:54:38;9.00;1.00
8633;DHT22;4354;49.832;10.746;2023-11-21T15:57:07;9.00;99.90
8633;DHT22;4354;49.832;10.746;2023-11-21T15:59:34;8.90;1.00
8633;DHT22;4354;49.832;10.746;2023-11-21T16:02:01;8.90;1.00
8633;DHT22;4354;49.832;10.746;2023-11-21T16:04:31;8.90;1.00
8633;DHT22;4354;49.832;10.746;2023-11-21T16:06:58;8.80;1.00
8633;DHT22;4354;49.832;10.746;2023-11-21T16:09:27;8.90;1.00
8633;DHT22;4354;49.832;10.746;2023-11-21T16:12:05;8.80;1.00
8633;DHT22;4354;49.832;10.746;2023-11-21T16:14:36;8.80;1.00
8633;DHT22;4354;49.832;10.746;2023-11-21T16:17:08;8.80;99.90
8633;DHT22;4354;49.832;10.746;2023-11-21T16:19:36;8.70;1.00
8633;DHT22;4354;49.832;10.746;2023-11-21T16:22:04;8.70;1.00
8633;DHT22;4354;49.832;10.746;2023-11-21T16:24:32;8.60;1.00